Time;durP1;ratioP1;P1;durP2;ratioP2;P2;SDS_P1;SDS_P2;PMS_P1;PMS_P2;Temp;Humidity;BMP_temperature;BMP_pressure;BME280_temperature;BME280_humidity;BME280_pressure;Samples;Min_cycle;Max_cycle;Signal;HPM_P1;HPM_P2
2024/01/07 00:01:27;;;;;;;16.65;10.70;;;;;;;6.87;95.84;97507.47;5241480;22;20252;-92
2024/01/07 00:03:32;;;;;;;16.27;10.52;;;;;;;6.85;95.86;97512.75;5239439;22;20179;-94
2024/01/07 00:05:43;;;;;;;13.50;10.35;;;;;;;6.85;95.45;97504.16;5216021;22;20505;-93
2024/01/07 00:07:54;;;;;;;13.05;9.40;;;;;;;6.82;95.70;97509.53;5241705;22;20181;-93
2024/01/07 00:10:01;;;;;;;16.10;10.45;;;;;;;6.84;95.77;97512.84;5214541;22;20584;-90
2024/01/07 00:12:11;;;;;;;13.43;9.90;;;;;;;6.82;95.46;97512.13;5214328;22;20197;-92
2024/01/07 00:14:17;;;;;;;13.45;9.90;;;;;;;6.82;96.42;97509.53;5214779;22;20239;-94
2024/01/07 00:16:24;;;;;;;16.13;10.85;;;;;;;6.80;96.90;97509.63;5239864;22;20157;-93
2024/01/07 00:18:31;;;;;;;15.85;10.40;;;;;;;6.81;95.58;97513.88;5241239;22;20170;-93
2024/01/07 00:20:41;;;;;;;14.48;10.27;;;;;;;6.81;96.80;97519.06;5215650;22;20219;-91
2024/01/07 00:22:59;;;;;;;16.60;11.45;;;;;;;6.82;95.80;97517.31;5215858;22;20834;-91
2024/01/07 00:25:21;;;;;;;13.57;10.00;;;;;;;6.83;95.91;97513.78;5219208;22;20168;-92
2024/01/07 00:27:32;;;;;;;14.15;10.60;;;;;;;6.78;96.41;97516.66;5240775;22;20173;-92
2024/01/07 00:29:47;;;;;;;13.70;9.95;;;;;;;6.78;96.71;97519.25;5216112;22;20172;-93
2024/01/07 00:31:52;;;;;;;14.98;10.57;;;;;;;6.78;96.64;97518.41;5239464;22;20174;-90
2024/01/07 00:33:57;;;;;;;13.15;9.57;;;;;;;6.78;96.79;97514.06;5188154;22;20188;-92
2024/01/07 00:36:05;;;;;;;17.95;10.60;;;;;;;6.78;96.53;97513.22;5239155;22;20288;-94
2024/01/07 00:38:26;;;;;;;12.60;9.80;;;;;;;6.75;96.24;97516.00;5214773;22;20185;-93
2024/01/07 00:40:31;;;;;;;12.88;10.02;;;;;;;6.77;95.89;97516.75;5215957;22;20245;-92
2024/01/07 00:42:54;;;;;;;13.77;10.18;;;;;;;6.77;96.28;97519.34;5239036;22;20167;-92
2024/01/07 00:44:58;;;;;;;13.75;10.00;;;;;;;6.75;96.84;97516.00;5238403;22;20225;-92
2024/01/07 00:47:22;;;;;;;12.68;9.60;;;;;;;6.77;96.13;97514.19;5195298;22;20180;-88
2024/01/07 00:49:45;;;;;;;12.45;9.57;;;;;;;6.77;96.70;97512.41;5239463;22;20509;-90
2024/01/07 00:51:49;;;;;;;13.75;10.32;;;;;;;6.78;96.98;97510.63;5187624;22;20176;-93
2024/01/07 00:53:57;;;;;;;15.07;10.00;;;;;;;6.80;96.26;97512.22;5211726;22;20681;-90
2024/01/07 00:56:06;;;;;;;12.95;9.88;;;;;;;6.82;95.98;97515.53;5188345;22;20170;-91
2024/01/07 00:58:20;;;;;;;13.90;9.95;;;;;;;6.79;96.60;97514.91;5191362;22;20181;-89
2024/01/07 01:00:27;;;;;;;15.45;9.80;;;;;;;6.81;96.76;97526.84;5238189;22;20226;-92
2024/01/07 01:02:38;;;;;;;17.17;11.63;;;;;;;6.81;96.83;97520.81;5214878;22;20182;-83
2024/01/07 01:04:43;;;;;;;16.52;11.93;;;;;;;6.81;96.29;97520.81;5239492;22;20174;-83
2024/01/07 01:06:51;;;;;;;17.67;10.98;;;;;;;6.80;96.29;97524.34;5188872;22;20180;-82
2024/01/07 01:08:57;;;;;;;23.48;13.20;;;;;;;6.79;96.48;97525.25;5213267;22;20271;-82
2024/01/07 01:11:11;;;;;;;15.45;10.75;;;;;;;6.76;96.82;97526.28;5214639;22;20374;-82
2024/01/07 01:13:21;;;;;;;18.73;11.75;;;;;;;6.76;96.19;97531.47;5190800;22;20234;-82
2024/01/07 01:15:27;;;;;;;19.60;12.95;;;;;;;6.76;96.66;97530.63;5213152;22;20176;-82
2024/01/07 01:17:35;;;;;;;18.30;11.40;;;;;;;6.75;96.72;97532.41;5213755;22;20282;-83
2024/01/07 01:19:42;;;;;;;18.70;12.95;;;;;;;6.76;96.27;97541.81;5189123;22;20180;-83
2024/01/07 01:21:48;;;;;;;17.17;11.82;;;;;;;6.75;96.33;97539.31;5213540;22;20421;-82
2024/01/07 01:23:57;;;;;;;20.00;12.23;;;;;;;6.76;96.81;97541.00;5213699;22;20255;-82
2024/01/07 01:26:05;;;;;;;22.33;12.40;;;;;;;6.77;97.65;97543.50;5213070;22;20657;-82
2024/01/07 01:28:10;;;;;;;19.00;11.85;;;;;;;6.82;97.13;97550.97;5187342;22;20176;-83
2024/01/07 01:30:21;;;;;;;21.23;12.40;;;;;;;6.82;96.96;97545.81;5238768;22;20170;-82
2024/01/07 01:32:25;;;;;;;19.30;11.50;;;;;;;6.84;97.15;97547.38;5212615;22;20170;-82
2024/01/07 01:34:32;;;;;;;16.45;10.70;;;;;;;6.83;96.18;97545.72;5237938;22;20174;-83
2024/01/07 01:36:38;;;;;;;16.00;10.95;;;;;;;6.83;97.29;97543.13;5213662;22;20171;-83
2024/01/07 01:38:45;;;;;;;16.13;12.20;;;;;;;6.86;97.17;97542.94;5212739;22;20206;-82
2024/01/07 01:40:55;;;;;;;19.40;11.73;;;;;;;6.85;97.11;97551.63;5188642;22;20327;-83
2024/01/07 01:43:01;;;;;;;20.50;11.70;;;;;;;6.86;96.98;97547.28;5187331;22;20218;-82
2024/01/07 01:45:06;;;;;;;17.70;11.35;;;;;;;6.79;97.37;97541.63;5212764;22;20555;-82
2024/01/07 01:47:18;;;;;;;16.90;11.75;;;;;;;6.81;97.89;97551.91;5240149;22;20173;-84
2024/01/07 01:49:23;;;;;;;15.18;10.40;;;;;;;6.78;96.88;97546.91;5239042;22;20576;-82
2024/01/07 01:51:29;;;;;;;18.80;11.88;;;;;;;6.81;97.87;97549.31;5188097;22;20192;-82
2024/01/07 01:53:35;;;;;;;16.88;11.40;;;;;;;6.83;97.81;97558.66;5213052;22;20171;-82
2024/01/07 01:55:47;;;;;;;18.48;10.82;;;;;;;6.85;98.02;97550.78;5190740;22;20228;-82
2024/01/07 01:57:59;;;;;;;14.13;10.85;;;;;;;6.85;97.03;97550.78;5214122;22;20292;-82
2024/01/07 02:00:13;;;;;;;16.17;10.95;;;;;;;6.86;97.89;97552.47;5214972;22;20556;-82
2024/01/07 02:02:23;;;;;;;17.80;11.75;;;;;;;6.86;97.13;97547.28;5213532;22;20182;-83
2024/01/07 02:04:28;;;;;;;19.05;11.35;;;;;;;6.87;97.46;97544.59;5237000;22;20664;-82
2024/01/07 02:06:36;;;;;;;14.00;10.40;;;;;;;6.88;96.95;97556.59;5213364;22;20175;-83
2024/01/07 02:08:48;;;;;;;16.98;10.50;;;;;;;6.92;97.97;97546.91;5190166;22;20179;-83
2024/01/07 02:11:15;;;;;;;15.13;10.55;;;;;;;6.96;97.62;97550.94;5190964;22;20273;-83
2024/01/07 02:13:22;;;;;;;15.77;11.30;;;;;;;6.97;97.37;97544.84;5240383;22;20171;-83
2024/01/07 02:15:33;;;;;;;15.88;10.07;;;;;;;6.98;97.14;97546.53;5213349;22;20175;-82
2024/01/07 02:17:47;;;;;;;13.27;10.10;;;;;;;7.01;96.94;97554.09;5215401;22;20174;-82
2024/01/07 02:20:00;;;;;;;12.05;9.27;;;;;;;7.03;96.85;97554.84;5213734;22;20247;-83
2024/01/07 02:22:05;;;;;;;12.95;9.30;;;;;;;7.04;96.84;97544.38;5212653;22;20301;-84
2024/01/07 02:24:32;;;;;;;17.75;8.85;;;;;;;7.07;97.23;97546.75;5217600;22;20254;-82
2024/01/07 02:26:44;;;;;;;13.43;9.23;;;;;;;7.06;97.23;97551.09;5214124;22;20654;-82
2024/01/07 02:28:51;;;;;;;12.07;9.27;;;;;;;7.08;97.25;97546.66;5213514;22;20676;-82
2024/01/07 02:30:57;;;;;;;13.75;9.77;;;;;;;7.07;96.51;97562.31;5212833;22;20724;-82
2024/01/07 02:33:08;;;;;;;14.50;9.70;;;;;;;7.08;97.54;97554.44;5238067;22;20665;-82
2024/01/07 02:35:21;;;;;;;15.13;11.10;;;;;;;7.05;96.77;97552.03;5238823;22;20262;-83
2024/01/07 02:37:37;;;;;;;19.20;11.68;;;;;;;7.03;96.67;97553.06;5239446;22;20181;-83
2024/01/07 02:40:02;;;;;;;17.88;12.07;;;;;;;7.00;96.91;97549.84;5216013;22;20178;-82
2024/01/07 02:42:26;;;;;;;17.80;11.32;;;;;;;6.97;96.74;97555.22;5216540;22;20176;-84
2024/01/07 02:44:36;;;;;;;16.02;11.05;;;;;;;6.97;95.60;97550.84;5238025;22;20559;-83
2024/01/07 02:46:46;;;;;;;15.57;9.95;;;;;;;6.96;95.24;97551.81;5188549;22;20171;-82
2024/01/07 02:49:09;;;;;;;19.10;10.80;;;;;;;6.92;95.15;97546.91;5217746;22;20202;-82
2024/01/07 02:51:18;;;;;;;13.75;9.63;;;;;;;6.92;96.18;97545.13;5213399;22;20168;-82
2024/01/07 02:53:35;;;;;;;12.98;9.65;;;;;;;6.94;95.11;97547.63;5215740;22;20178;-83
2024/01/07 02:56:00;;;;;;;13.00;9.60;;;;;;;6.95;95.42;97544.13;5194480;22;20584;-82
2024/01/07 02:58:05;;;;;;;13.77;8.63;;;;;;;6.95;96.08;97549.31;5213296;22;20174;-83
2024/01/07 03:00:29;;;;;;;12.55;8.85;;;;;;;6.98;95.36;97546.53;5216028;22;20183;-82
2024/01/07 03:02:53;;;;;;;12.73;8.38;;;;;;;6.99;96.29;97555.94;5215807;22;20499;-82
2024/01/07 03:05:16;;;;;;;12.80;9.38;;;;;;;6.98;96.07;97551.72;5217058;22;20170;-82
2024/01/07 03:07:36;;;;;;;18.00;10.13;;;;;;;6.97;96.01;97544.84;5215933;22;20173;-83
2024/01/07 03:09:59;;;;;;;11.95;8.93;;;;;;;6.96;95.39;97548.34;5216200;22;20223;-83
2024/01/07 03:12:24;;;;;;;10.60;8.73;;;;;;;6.95;95.73;97551.91;5216222;22;20651;-82
2024/01/07 03:14:47;;;;;;;13.30;9.40;;;;;;;6.96;94.92;97551.81;5216966;22;20224;-84
2024/01/07 03:17:10;;;;;;;13.07;8.80;;;;;;;6.96;95.91;97551.81;5218106;22;20957;-83
2024/01/07 03:19:33;;;;;;;14.18;9.88;;;;;;;6.97;95.25;97552.63;5196951;22;20173;-82
2024/01/07 03:21:57;;;;;;;11.18;8.73;;;;;;;7.00;95.32;97549.84;5196893;22;20196;-82
2024/01/07 03:24:21;;;;;;;10.50;8.40;;;;;;;6.99;95.42;97558.53;5217827;22;20230;-82
2024/01/07 03:26:44;;;;;;;12.18;9.18;;;;;;;6.98;95.73;97557.72;5219319;22;20178;-83
2024/01/07 03:29:08;;;;;;;11.45;8.52;;;;;;;6.98;95.31;97562.06;5218195;22;20561;-82
2024/01/07 03:31:31;;;;;;;10.43;8.75;;;;;;;7.00;95.47;97560.22;5240896;22;20213;-84
2024/01/07 03:33:55;;;;;;;12.23;9.13;;;;;;;7.00;95.40;97552.44;5218457;22;20174;-82
2024/01/07 03:36:18;;;;;;;12.20;9.45;;;;;;;6.99;94.57;97563.72;5240070;22;20678;-83
2024/01/07 03:38:42;;;;;;;13.85;9.90;;;;;;;7.01;95.35;97561.88;5217811;22;20206;-82
2024/01/07 03:41:05;;;;;;;11.50;8.55;;;;;;;7.00;94.43;97568.81;5218021;22;20187;-82
2024/01/07 03:43:28;;;;;;;12.35;8.85;;;;;;;6.92;93.74;97572.81;5196266;22;20178;-82
2024/01/07 03:45:52;;;;;;;13.43;9.48;;;;;;;6.85;94.47;97574.13;5195995;22;20190;-83
2024/01/07 03:48:15;;;;;;;14.05;9.82;;;;;;;6.81;93.84;97565.72;5197295;22;20229;-82
2024/01/07 03:50:40;;;;;;;14.40;10.20;;;;;;;6.78;94.20;97568.50;5197066;22;20670;-82
2024/01/07 03:53:04;;;;;;;14.73;9.95;;;;;;;6.81;95.13;97572.63;5240884;22;20205;-83
2024/01/07 03:55:27;;;;;;;16.40;9.85;;;;;;;6.82;94.86;97577.72;5240884;22;20174;-82
2024/01/07 03:57:50;;;;;;;12.98;9.00;;;;;;;6.80;94.17;97573.56;5218205;22;20174;-83
2024/01/07 04:00:14;;;;;;;13.65;9.88;;;;;;;6.81;94.77;97570.91;5217534;22;20251;-82
2024/01/07 04:02:38;;;;;;;12.20;10.18;;;;;;;6.74;94.93;97572.19;5196153;22;20181;-82
2024/01/07 04:05:02;;;;;;;15.55;10.73;;;;;;;6.58;95.00;97568.88;5240666;22;20619;-82
2024/01/07 04:07:13;;;;;;;12.57;9.50;;;;;;;6.56;95.33;97568.13;5240616;22;20172;-82
2024/01/07 04:09:21;;;;;;;14.43;10.88;;;;;;;6.51;95.51;97566.75;5189891;22;20180;-83
2024/01/07 04:11:31;;;;;;;16.85;9.90;;;;;;;6.46;96.36;97571.38;5215382;22;20976;-82
2024/01/07 04:13:45;;;;;;;14.88;10.32;;;;;;;6.41;96.37;97575.19;5240144;22;20184;-83
2024/01/07 04:16:01;;;;;;;14.35;11.57;;;;;;;6.41;96.91;97572.59;5215944;22;20168;-83
2024/01/07 04:18:25;;;;;;;15.10;11.10;;;;;;;6.45;97.42;97580.09;5241524;22;20664;-81
2024/01/07 04:20:35;;;;;;;14.02;10.10;;;;;;;6.36;96.85;97577.19;5239397;22;20548;-82
2024/01/07 04:22:47;;;;;;;15.63;10.85;;;;;;;6.29;97.52;97571.56;5213442;22;20583;-83
2024/01/07 04:25:10;;;;;;;14.55;10.00;;;;;;;6.28;97.48;97582.81;5241292;22;20180;-82
2024/01/07 04:27:17;;;;;;;15.95;10.57;;;;;;;6.23;98.04;97578.88;5214281;22;20201;-83
2024/01/07 04:29:30;;;;;;;15.93;10.80;;;;;;;6.22;97.78;97579.78;5215973;22;20172;-82
2024/01/07 04:31:53;;;;;;;16.40;11.07;;;;;;;6.19;97.90;97583.41;5217802;22;20232;-91
2024/01/07 04:34:08;;;;;;;16.13;10.55;;;;;;;6.23;98.21;97587.44;5239314;22;20235;-91
2024/01/07 04:36:26;;;;;;;16.27;10.32;;;;;;;6.21;97.80;97586.72;5216550;22;20164;-94
2024/01/07 04:38:49;;;;;;;15.23;10.98;;;;;;;6.14;97.83;97585.41;5240398;22;20514;-90
2024/01/07 04:41:12;;;;;;;17.10;10.70;;;;;;;6.12;98.19;97589.84;5217689;22;20184;-94
2024/01/07 04:43:36;;;;;;;14.25;10.15;;;;;;;6.14;98.36;97589.75;5217338;22;20177;-90
2024/01/07 04:45:59;;;;;;;17.73;10.85;;;;;;;6.20;98.95;97597.97;5215855;22;20174;-87
2024/01/07 04:48:22;;;;;;;15.50;9.73;;;;;;;6.24;98.94;97598.63;5218089;22;20178;-92
2024/01/07 04:50:42;;;;;;;15.30;10.80;;;;;;;6.23;98.91;97602.97;5216436;22;20175;-92
2024/01/07 04:53:05;;;;;;;13.77;10.00;;;;;;;6.30;98.72;97600.84;5215306;22;20248;-90
2024/01/07 04:55:27;;;;;;;13.88;9.82;;;;;;;6.37;98.23;97599.56;5239808;22;20194;-92
2024/01/07 04:57:51;;;;;;;14.88;11.25;;;;;;;6.40;98.64;97605.41;5216288;22;20189;-86
2024/01/07 05:00:15;;;;;;;13.75;9.90;;;;;;;6.47;98.40;97604.13;5238641;22;20172;-91
2024/01/07 05:02:38;;;;;;;13.88;11.05;;;;;;;6.53;98.60;97605.53;5195058;22;20182;-92
2024/01/07 05:05:01;;;;;;;13.35;10.35;;;;;;;6.53;97.60;97611.53;5217578;22;20172;-92
2024/01/07 05:07:20;;;;;;;14.63;9.60;;;;;;;6.57;97.86;97620.78;5215723;22;20164;-89
2024/01/07 05:09:43;;;;;;;12.40;9.30;;;;;;;6.56;97.45;97616.53;5240356;22;20177;-88
2024/01/07 05:12:07;;;;;;;14.85;10.80;;;;;;;6.56;97.70;97617.34;5195383;22;20526;-87
2024/01/07 05:14:30;;;;;;;15.75;10.13;;;;;;;6.62;98.09;97623.91;5217310;22;20846;-92
2024/01/07 05:16:54;;;;;;;15.25;11.13;;;;;;;6.58;97.85;97620.69;5216930;22;20168;-92
2024/01/07 05:19:17;;;;;;;12.85;9.52;;;;;;;6.62;98.01;97623.91;5239058;22;20174;-90
2024/01/07 05:21:40;;;;;;;14.88;10.52;;;;;;;6.65;98.07;97628.91;5215755;22;20221;-92
2024/01/07 05:24:06;;;;;;;12.65;10.50;;;;;;;6.67;97.01;97630.47;5238936;22;20627;-92
2024/01/07 05:26:29;;;;;;;13.07;10.23;;;;;;;6.60;97.25;97628.38;5239119;22;20628;-93
2024/01/07 05:28:52;;;;;;;13.40;10.35;;;;;;;6.58;97.26;97631.06;5217499;22;20172;-90
2024/01/07 05:31:16;;;;;;;15.75;11.27;;;;;;;6.50;96.77;97629.00;5240306;22;20573;-92
2024/01/07 05:33:39;;;;;;;15.85;10.98;;;;;;;6.38;96.89;97619.38;5237939;22;20257;-93
2024/01/07 05:36:03;;;;;;;14.15;10.40;;;;;;;6.42;96.59;97628.59;5217508;22;20178;-91
2024/01/07 05:38:26;;;;;;;16.52;11.40;;;;;;;6.42;96.79;97632.06;5216253;22;20595;-93
2024/01/07 05:40:53;;;;;;;15.98;11.55;;;;;;;6.40;96.26;97636.47;5240666;22;20799;-82
2024/01/07 05:43:16;;;;;;;18.75;12.00;;;;;;;6.46;96.28;97638.69;5240744;22;20634;-83
2024/01/07 05:45:39;;;;;;;16.38;11.60;;;;;;;6.52;96.70;97640.09;5216635;22;20242;-82
2024/01/07 05:48:03;;;;;;;16.17;11.85;;;;;;;6.57;96.24;97644.09;5217178;22;20188;-83
2024/01/07 05:50:26;;;;;;;16.65;11.60;;;;;;;6.48;95.24;97647.22;5196295;22;20156;-82
2024/01/07 05:52:49;;;;;;;14.40;11.00;;;;;;;6.51;95.27;97643.59;5216171;22;20265;-83
2024/01/07 05:55:12;;;;;;;15.13;10.77;;;;;;;6.50;96.09;97652.31;5217108;22;20185;-82
2024/01/07 05:57:22;;;;;;;15.68;10.90;;;;;;;6.41;94.54;97650.28;5213134;22;20168;-83
2024/01/07 05:59:45;;;;;;;16.27;12.30;;;;;;;6.34;95.38;97646.38;5217413;22;20191;-82
2024/01/07 06:02:08;;;;;;;14.13;10.25;;;;;;;6.28;94.70;97650.13;5217161;22;20176;-82
2024/01/07 06:04:31;;;;;;;17.17;12.20;;;;;;;6.30;95.02;97650.91;5240284;22;20684;-83
2024/01/07 06:06:55;;;;;;;16.45;12.23;;;;;;;6.26;95.63;97643.41;5216496;22;20543;-83
2024/01/07 06:09:18;;;;;;;19.63;12.40;;;;;;;6.18;95.89;97651.63;5217023;22;20668;-83
2024/01/07 06:11:41;;;;;;;16.27;11.32;;;;;;;6.24;96.13;97655.59;5216884;22;20182;-82
2024/01/07 06:14:06;;;;;;;14.50;11.30;;;;;;;6.18;94.11;97664.56;5217582;22;20228;-82
2024/01/07 06:16:29;;;;;;;15.90;10.73;;;;;;;6.05;94.67;97665.34;5195716;22;20246;-83
2024/01/07 06:18:52;;;;;;;12.65;9.15;;;;;;;5.97;94.11;97664.97;5217372;22;20571;-82
2024/01/07 06:21:15;;;;;;;12.50;9.68;;;;;;;5.92;94.07;97669.53;5217940;22;20523;-82
2024/01/07 06:23:38;;;;;;;15.07;10.05;;;;;;;5.84;93.62;97663.16;5216019;22;20178;-82
2024/01/07 06:26:04;;;;;;;13.60;9.73;;;;;;;5.74;93.10;97660.25;5195908;22;20241;-82
2024/01/07 06:28:27;;;;;;;13.25;10.00;;;;;;;5.76;93.02;97667.94;5217704;22;20244;-83
2024/01/07 06:30:51;;;;;;;13.43;9.15;;;;;;;5.67;93.04;97658.06;5195803;22;20751;-83
2024/01/07 06:33:15;;;;;;;15.77;10.02;;;;;;;5.68;93.63;97670.91;5240419;22;20176;-83
2024/01/07 06:35:38;;;;;;;13.75;9.60;;;;;;;5.73;93.00;97676.66;5240683;22;20172;-82
2024/01/07 06:38:02;;;;;;;13.85;9.48;;;;;;;5.68;93.12;97675.22;5215326;22;20168;-83
2024/01/07 06:40:26;;;;;;;13.57;10.55;;;;;;;5.66;93.52;97674.50;5217263;22;20173;-83
2024/01/07 06:42:48;;;;;;;15.60;9.82;;;;;;;5.59;93.21;97685.25;5194149;22;20231;-82
2024/01/07 06:44:57;;;;;;;15.15;9.88;;;;;;;5.52;93.95;97678.75;5238669;22;20171;-83
2024/01/07 06:47:24;;;;;;;16.38;11.05;;;;;;;5.53;93.79;97686.41;5217293;22;20176;-81
2024/01/07 06:49:41;;;;;;;15.00;11.10;;;;;;;5.50;93.75;97686.59;5239671;22;20537;-83
2024/01/07 06:52:05;;;;;;;14.70;9.73;;;;;;;5.51;94.67;97685.69;5197581;22;20248;-90
2024/01/07 06:54:19;;;;;;;13.85;9.95;;;;;;;5.50;94.94;97686.59;5192333;22;20638;-86
2024/01/07 06:56:42;;;;;;;13.85;10.43;;;;;;;5.52;95.28;97694.25;5219274;22;20177;-93
2024/01/07 06:59:07;;;;;;;17.70;10.75;;;;;;;5.48;94.85;97698.78;5242185;22;20172;-93
2024/01/07 07:01:25;;;;;;;14.75;10.48;;;;;;;5.49;95.33;97700.47;5241251;22;20547;-91
2024/01/07 07:03:50;;;;;;;14.02;9.25;;;;;;;5.51;95.86;97705.53;5197207;22;20177;-90
2024/01/07 07:06:12;;;;;;;13.15;9.80;;;;;;;5.53;96.25;97704.53;5219327;22;20169;-91
2024/01/07 07:08:35;;;;;;;19.30;10.95;;;;;;;5.60;96.19;97711.88;5241416;22;20201;-91
2024/01/07 07:10:58;;;;;;;16.25;10.00;;;;;;;5.65;96.22;97717.63;5219710;22;20168;-93
2024/01/07 07:13:21;;;;;;;14.88;10.93;;;;;;;5.69;95.82;97715.72;5240631;22;20251;-92
2024/01/07 07:15:45;;;;;;;15.60;11.30;;;;;;;5.69;95.95;97718.28;5196063;22;20179;-92
2024/01/07 07:18:08;;;;;;;13.75;10.50;;;;;;;5.75;96.16;97728.34;5219457;22;20563;-92
2024/01/07 07:20:36;;;;;;;14.35;10.32;;;;;;;5.83;95.63;97733.91;5218841;22;20177;-92
2024/01/07 07:22:59;;;;;;;15.43;10.88;;;;;;;5.92;95.51;97741.16;5217109;22;20174;-94
2024/01/07 07:25:22;;;;;;;15.13;10.48;;;;;;;5.90;94.22;97743.84;5218621;22;20198;-93
2024/01/07 07:27:45;;;;;;;16.27;10.50;;;;;;;5.83;93.41;97752.03;5218787;22;20509;-92
2024/01/07 07:30:08;;;;;;;15.73;8.98;;;;;;;5.81;92.74;97752.09;5217592;22;20198;-90
2024/01/07 07:32:31;;;;;;;31.90;18.60;;;;;;;5.77;91.92;97754.94;5196202;22;20177;-93
2024/01/07 07:34:54;;;;;;;16.73;11.50;;;;;;;5.72;91.97;97759.50;5241029;22;20628;-89
2024/01/07 07:37:19;;;;;;;100.10;46.25;;;;;;;5.73;91.38;97767.19;5218795;22;20695;-90
2024/01/07 07:39:43;;;;;;;19.48;12.32;;;;;;;5.56;91.19;97766.41;5240153;22;20251;-92
2024/01/07 07:42:07;;;;;;;43.83;23.33;;;;;;;5.56;91.50;97763.84;5240229;22;20659;-91
2024/01/07 07:44:30;;;;;;;20.38;12.20;;;;;;;5.57;91.54;97760.34;5216824;22;20168;-94
2024/01/07 07:46:48;;;;;;;38.60;22.00;;;;;;;5.59;91.40;97766.25;5217203;22;20257;-92
2024/01/07 07:49:12;;;;;;;46.42;26.90;;;;;;;5.60;91.49;97767.13;5239265;22;20229;-91
2024/01/07 07:51:35;;;;;;;12.45;8.20;;;;;;;5.52;89.91;97769.25;5241664;22;20181;-89
2024/01/07 07:53:47;;;;;;;44.03;24.35;;;;;;;5.46;90.30;97772.16;5214912;22;20205;-93
2024/01/07 07:56:10;;;;;;;59.00;28.13;;;;;;;5.51;90.27;97765.03;5196807;22;20178;-92
2024/01/07 07:58:33;;;;;;;69.07;31.00;;;;;;;5.53;89.55;97779.50;5218305;22;20192;-92
2024/01/07 08:00:57;;;;;;;37.10;19.30;;;;;;;5.39;89.23;97776.00;5217618;22;20184;-82
2024/01/07 08:03:20;;;;;;;15.57;9.23;;;;;;;5.32;89.21;97780.69;5195734;22;20185;-82
2024/01/07 08:05:43;;;;;;;12.13;8.40;;;;;;;5.26;88.95;97777.56;5196929;22;20184;-83
2024/01/07 08:08:07;;;;;;;26.35;18.13;;;;;;;5.16;89.68;97784.97;5218663;22;20176;-81
2024/01/07 08:10:31;;;;;;;14.20;11.07;;;;;;;5.18;89.97;97784.88;5217458;22;20689;-82
2024/01/07 08:12:55;;;;;;;15.73;13.85;;;;;;;5.21;89.95;97790.72;5218113;22;20181;-82
2024/01/07 08:15:18;;;;;;;14.20;10.05;;;;;;;5.14;90.05;97785.94;5195495;22;20247;-82
2024/01/07 08:17:41;;;;;;;10.35;7.65;;;;;;;5.15;90.13;97792.78;5197002;22;20211;-84
2024/01/07 08:20:05;;;;;;;11.90;8.23;;;;;;;5.19;90.10;97789.97;5241765;22;20189;-81
2024/01/07 08:22:29;;;;;;;9.98;7.47;;;;;;;5.13;90.35;97792.88;5217792;22;20164;-83
2024/01/07 08:24:52;;;;;;;15.55;9.65;;;;;;;5.21;90.53;97793.31;5240461;22;20239;-82
2024/01/07 08:27:17;;;;;;;30.95;21.40;;;;;;;5.20;90.21;97791.66;5216990;22;20723;-83
2024/01/07 08:29:40;;;;;;;22.70;14.82;;;;;;;5.26;90.81;97801.69;5238744;22;20978;-83
2024/01/07 08:32:03;;;;;;;39.63;28.67;;;;;;;5.21;89.99;97802.81;5216967;22;20176;-83
2024/01/07 08:34:26;;;;;;;12.88;8.65;;;;;;;5.20;90.12;97798.56;5196814;22;20157;-81
2024/01/07 08:36:50;;;;;;;11.07;8.23;;;;;;;5.12;89.67;97805.06;5218205;22;20652;-83
2024/01/07 08:39:15;;;;;;;14.15;9.82;;;;;;;5.07;89.57;97802.69;5195727;22;20177;-82
2024/01/07 08:41:38;;;;;;;11.68;8.20;;;;;;;5.15;90.21;97803.97;5217130;22;20237;-82
2024/01/07 08:44:03;;;;;;;10.77;7.22;;;;;;;5.21;90.06;97810.56;5195090;22;20157;-82
2024/01/07 08:46:25;;;;;;;13.60;7.53;;;;;;;5.13;87.99;97800.63;5239681;22;20197;-83
2024/01/07 08:48:48;;;;;;;23.63;16.15;;;;;;;5.15;89.54;97805.72;5240929;22;20484;-83
2024/01/07 08:51:11;;;;;;;33.70;23.13;;;;;;;5.11;89.14;97808.53;5217742;22;20183;-82
2024/01/07 08:53:34;;;;;;;32.70;24.38;;;;;;;5.13;89.07;97815.31;5217339;22;20258;-82
2024/01/07 08:55:57;;;;;;;10.68;7.05;;;;;;;5.08;88.56;97817.28;5239759;22;20195;-82
2024/01/07 08:58:20;;;;;;;10.75;7.55;;;;;;;5.05;88.79;97814.03;5216672;22;20689;-82
2024/01/07 09:00:45;;;;;;;12.32;7.72;;;;;;;5.11;89.93;97826.63;5217400;22;20165;-83
2024/01/07 09:02:54;;;;;;;8.35;6.10;;;;;;;5.12;88.79;97817.97;5189826;22;20209;-82
2024/01/07 09:05:18;;;;;;;9.93;6.40;;;;;;;5.15;88.34;97822.06;5240603;22;20502;-83
2024/01/07 09:07:33;;;;;;;8.63;6.15;;;;;;;5.21;88.69;97828.66;5216463;22;20401;-82
2024/01/07 09:09:51;;;;;;;9.60;6.20;;;;;;;5.19;88.38;97831.31;5215149;22;20187;-82
2024/01/07 09:12:14;;;;;;;9.40;6.03;;;;;;;5.26;88.95;97837.00;5216956;22;20177;-90
2024/01/07 09:14:29;;;;;;;7.55;4.68;;;;;;;5.27;87.76;97838.69;5237436;22;20171;-91
2024/01/07 09:16:54;;;;;;;7.95;5.13;;;;;;;5.14;87.48;97847.97;5239712;22;20171;-88
2024/01/07 09:19:17;;;;;;;7.97;5.65;;;;;;;5.01;88.24;97846.13;5196596;22;20689;-91
2024/01/07 09:21:40;;;;;;;9.80;6.10;;;;;;;5.12;87.10;97846.41;5216781;22;20757;-91
2024/01/07 09:24:04;;;;;;;9.50;5.93;;;;;;;5.02;87.46;97851.19;5240123;22;20235;-94
2024/01/07 09:26:28;;;;;;;7.53;5.50;;;;;;;4.90;87.38;97848.38;5240445;22;20628;-93
2024/01/07 09:28:51;;;;;;;7.60;5.03;;;;;;;4.81;87.53;97854.00;5217502;22;20168;-93
2024/01/07 09:31:15;;;;;;;8.23;5.80;;;;;;;4.79;87.81;97851.50;5215905;22;20620;-92
2024/01/07 09:33:40;;;;;;;9.38;6.50;;;;;;;4.80;87.57;97857.50;5216630;22;20176;-92
2024/01/07 09:36:00;;;;;;;10.10;5.10;;;;;;;4.75;87.14;97864.63;5215961;22;20268;-89
2024/01/07 09:38:37;;;;;;;7.13;4.85;;;;;;;4.64;87.11;97872.06;5216896;22;20260;-90
2024/01/07 09:41:00;;;;;;;9.50;6.18;;;;;;;4.64;87.95;97877.22;5218047;22;20175;-92
2024/01/07 09:43:23;;;;;;;9.48;6.18;;;;;;;4.67;87.80;97871.91;5240629;22;20171;-89
2024/01/07 09:45:48;;;;;;;8.07;5.78;;;;;;;4.62;87.43;97870.50;5215879;22;20548;-90
2024/01/07 09:48:11;;;;;;;9.85;6.70;;;;;;;4.71;87.25;97866.53;5216345;22;20231;-90
2024/01/07 09:50:36;;;;;;;10.60;6.70;;;;;;;4.78;86.54;97869.66;5217864;22;20702;-92
2024/01/07 09:53:00;;;;;;;10.90;7.60;;;;;;;4.62;86.96;97863.56;5240246;22;20300;-92
2024/01/07 09:55:29;;;;;;;9.98;6.18;;;;;;;4.53;86.01;97861.44;5238424;22;20230;-88
2024/01/07 09:57:52;;;;;;;10.35;6.43;;;;;;;4.68;85.89;97862.44;5217592;22;20176;-93
2024/01/07 10:00:16;;;;;;;10.52;6.43;;;;;;;4.76;86.38;97858.56;5240271;22;20206;-91
2024/01/07 10:02:41;;;;;;;11.70;6.13;;;;;;;4.62;83.96;97858.41;5215953;22;20576;-90
2024/01/07 10:05:05;;;;;;;9.70;6.25;;;;;;;4.68;86.25;97857.28;5217413;22;20176;-91
2024/01/07 10:07:30;;;;;;;9.40;5.82;;;;;;;4.68;85.59;97852.13;5218304;22;20226;-90
2024/01/07 10:09:53;;;;;;;8.77;6.10;;;;;;;4.78;85.09;97857.59;5195913;22;20178;-91
2024/01/07 10:12:16;;;;;;;10.38;6.90;;;;;;;4.79;83.93;97855.84;5215964;22;20207;-90
2024/01/07 10:14:40;;;;;;;10.90;6.35;;;;;;;4.78;84.95;97856.72;5237994;22;20172;-91
2024/01/07 10:17:15;;;;;;;8.80;5.80;;;;;;;4.72;84.26;97864.78;5217688;22;20618;-90
2024/01/07 10:19:38;;;;;;;16.48;8.65;;;;;;;4.78;84.59;97859.31;5194238;22;20194;-89
2024/01/07 10:22:02;;;;;;;13.02;7.90;;;;;;;4.83;84.16;97872.84;5194277;22;20731;-84
2024/01/07 10:24:27;;;;;;;11.43;7.30;;;;;;;4.83;84.20;97876.28;5217076;22;20211;-84
2024/01/07 10:26:50;;;;;;;7.20;5.20;;;;;;;4.80;83.50;97865.25;5239837;22;20227;-86
2024/01/07 10:29:14;;;;;;;7.25;5.13;;;;;;;4.82;83.07;97863.44;5195562;22;20189;-81
2024/01/07 10:31:39;;;;;;;7.85;5.80;;;;;;;4.90;83.47;97871.63;5217108;22;20172;-83
2024/01/07 10:34:03;;;;;;;9.05;5.80;;;;;;;4.90;82.96;97861.28;5195813;22;20173;-80
2024/01/07 10:36:26;;;;;;;8.73;5.60;;;;;;;4.85;82.21;97866.69;5195054;22;20199;-81
2024/01/07 10:38:50;;;;;;;8.73;6.07;;;;;;;4.65;83.84;97866.00;5194897;22;20235;-83
2024/01/07 10:41:15;;;;;;;9.45;6.28;;;;;;;4.78;83.41;97873.09;5238462;22;20189;-80
2024/01/07 10:43:40;;;;;;;11.00;6.90;;;;;;;4.91;83.11;97876.72;5239606;22;20175;-82
2024/01/07 10:46:04;;;;;;;54.70;24.98;;;;;;;4.81;84.02;97874.66;5216705;22;20558;-83
2024/01/07 10:48:31;;;;;;;11.60;7.00;;;;;;;4.82;84.38;97876.34;5194543;22;20204;-83
2024/01/07 10:50:56;;;;;;;8.43;5.80;;;;;;;4.93;83.46;97884.38;5216005;22;20169;-83